Heartwellville, Vermont
Current Conditions -  °F | °C
As of 6:52 AM on Friday 24 Oct 2014 (Local Time) from KAQW Reporting Station
Light Rain Light Rain  
Wind Chill: 38°   Ceiling: 900
Heat Index: 43°   Visibility: 6mi
Dew Point: 41°   Wind: 9mph
Humidity: 93%   Direction: 250°WSW
Pressure: 29.81"   Gusts: NA
Location:  42.7989°N, 72.9719°W
Report Text: KAQW 241052Z AUTO 25008KT 6SM -RA BR OVC009 06/05 A2981 RMK AO2 CIG 007V013 SLP098 P0001 T00610050
Loading
Personal Weather Stations






























Interactive Weather Map
Tropical Storm Tracking
New forecast layout! Learn more

10-Day Weather Forecast

Advertisements
Track Severe Weather on mobile